Time;durP1;ratioP1;P1;durP2;ratioP2;P2;SDS_P1;SDS_P2;PMS_P1;PMS_P2;Temp;Humidity;BMP_temperature;BMP_pressure;BME280_temperature;BME280_humidity;BME280_pressure;Samples;Min_cycle;Max_cycle;Signal;HPM_P1;HPM_P2
2022/07/16 00:01:22;;;;;;;3.17;2.15;;;;;;;;;;4981324;28;20049;-73
2022/07/16 00:01:43;;;;;;;5.10;2.60;;;;;;;;;;4982330;28;20030;-73
2022/07/16 00:04:09;;;;;;;2.13;1.73;;;;;;;;;;4982433;28;20407;-72
2022/07/16 00:06:34;;;;;;;4.28;2.30;;;;;;;;;;4981968;28;20057;-72
2022/07/16 00:08:59;;;;;;;2.88;2.00;;;;;;;;;;4981498;28;20031;-72
2022/07/16 00:11:25;;;;;;;3.28;2.40;;;;;;;;;;4981130;28;20049;-71
2022/07/16 00:13:50;;;;;;;3.17;1.90;;;;;;;;;;4980607;28;20030;-73
2022/07/16 00:16:16;;;;;;;4.22;2.00;;;;;;;;;;4980650;28;20022;-73
2022/07/16 00:21:26;;;;;;;4.70;2.35;;;;;;;;;;4981034;28;20073;-73
2022/07/16 00:23:51;;;;;;;2.78;1.85;;;;;;;;;;4982157;28;20090;-73
2022/07/16 00:26:17;;;;;;;4.88;2.60;;;;;;;;;;4981535;28;20451;-72
2022/07/16 00:28:43;;;;;;;3.17;2.13;;;;;;;;;;4980771;28;20030;-73
2022/07/16 00:31:09;;;;;;;4.00;2.45;;;;;;;;;;4981192;28;20109;-72
2022/07/16 00:33:35;;;;;;;9.82;2.90;;;;;;;;;;4981574;28;20062;-72
2022/07/16 00:36:00;;;;;;;5.18;2.85;;;;;;;;;;4980087;28;20372;-73
2022/07/16 00:38:25;;;;;;;4.50;2.50;;;;;;;;;;4980884;28;20041;-72
2022/07/16 00:40:51;;;;;;;3.25;2.40;;;;;;;;;;4981874;28;20414;-73
2022/07/16 00:43:16;;;;;;;7.55;2.53;;;;;;;;;;4980955;28;20058;-72
2022/07/16 00:45:42;;;;;;;3.45;1.92;;;;;;;;;;4981836;28;20411;-72
2022/07/16 00:48:08;;;;;;;3.00;2.03;;;;;;;;;;4981926;28;20026;-73
2022/07/16 00:50:36;;;;;;;5.00;3.10;;;;;;;;;;4980295;28;20039;-73
2022/07/16 00:53:03;;;;;;;7.68;3.17;;;;;;;;;;4981601;28;20493;-73
2022/07/16 00:55:28;;;;;;;9.48;4.15;;;;;;;;;;4979374;28;20045;-73
2022/07/16 00:57:57;;;;;;;10.52;4.30;;;;;;;;;;4981484;28;20039;-73
2022/07/16 01:00:23;;;;;;;13.48;5.60;;;;;;;;;;4980259;28;20120;-73
2022/07/16 01:02:49;;;;;;;13.18;5.75;;;;;;;;;;4980133;28;20033;-73
2022/07/16 01:05:15;;;;;;;12.77;5.80;;;;;;;;;;4980350;28;20038;-72
2022/07/16 01:07:41;;;;;;;10.88;4.80;;;;;;;;;;4981495;28;20034;-72
2022/07/16 01:10:07;;;;;;;13.68;7.07;;;;;;;;;;4980326;28;20042;-73
2022/07/16 01:12:33;;;;;;;17.55;6.57;;;;;;;;;;4981388;28;20093;-72
2022/07/16 01:14:59;;;;;;;17.33;7.32;;;;;;;;;;4981417;28;20113;-73
2022/07/16 01:17:24;;;;;;;13.25;6.35;;;;;;;;;;4979270;28;20030;-72
2022/07/16 01:19:50;;;;;;;9.25;4.35;;;;;;;;;;4980163;28;20443;-73
2022/07/16 01:22:20;;;;;;;7.80;4.25;;;;;;;;;;4984725;28;20037;-73
2022/07/16 01:24:48;;;;;;;6.43;2.60;;;;;;;;;;4985010;28;20458;-73
2022/07/16 01:27:13;;;;;;;3.25;2.50;;;;;;;;;;4984401;28;20038;-73
2022/07/16 01:29:39;;;;;;;3.72;2.05;;;;;;;;;;4983575;28;20041;-72
2022/07/16 01:32:05;;;;;;;4.32;2.28;;;;;;;;;;4985156;28;20034;-72
2022/07/16 01:34:31;;;;;;;5.78;2.15;;;;;;;;;;4980356;28;20042;-72
2022/07/16 01:36:59;;;;;;;3.40;2.10;;;;;;;;;;4984249;28;20040;-72
2022/07/16 01:39:25;;;;;;;4.65;2.38;;;;;;;;;;4983738;28;20077;-72
2022/07/16 01:41:57;;;;;;;7.38;2.40;;;;;;;;;;4982842;28;20042;-72
2022/07/16 01:44:24;;;;;;;3.42;2.33;;;;;;;;;;4984454;28;20034;-72
2022/07/16 01:46:54;;;;;;;5.75;2.20;;;;;;;;;;4984955;28;20140;-72
2022/07/16 01:49:20;;;;;;;4.10;2.55;;;;;;;;;;4982407;28;20042;-72
2022/07/16 01:51:46;;;;;;;5.47;2.22;;;;;;;;;;4984795;28;20495;-72
2022/07/16 01:54:11;;;;;;;8.95;2.60;;;;;;;;;;4983355;28;20100;-72
2022/07/16 01:56:37;;;;;;;8.13;2.40;;;;;;;;;;4984352;28;20045;-72
2022/07/16 01:59:02;;;;;;;5.35;2.50;;;;;;;;;;4984774;28;20061;-72
2022/07/16 02:01:28;;;;;;;3.05;2.33;;;;;;;;;;4983834;28;20483;-72
2022/07/16 02:03:56;;;;;;;7.95;2.60;;;;;;;;;;4984686;28;20075;-72
2022/07/16 02:06:22;;;;;;;2.42;2.22;;;;;;;;;;4984267;28;20663;-72
2022/07/16 02:08:47;;;;;;;2.55;2.30;;;;;;;;;;4984512;28;20510;-72
2022/07/16 02:11:13;;;;;;;3.85;2.30;;;;;;;;;;4982328;28;20034;-72
2022/07/16 02:13:38;;;;;;;7.13;2.20;;;;;;;;;;4982907;28;20034;-72
2022/07/16 02:16:04;;;;;;;3.47;2.22;;;;;;;;;;4984422;28;20034;-72
2022/07/16 02:18:29;;;;;;;3.78;2.60;;;;;;;;;;4984232;28;20698;-72
2022/07/16 02:20:55;;;;;;;3.90;2.03;;;;;;;;;;4984191;28;20466;-72
2022/07/16 02:23:20;;;;;;;7.22;2.20;;;;;;;;;;4983098;28;20042;-72
2022/07/16 02:25:46;;;;;;;4.38;2.25;;;;;;;;;;4966405;28;20046;-72
2022/07/16 02:28:11;;;;;;;2.08;1.98;;;;;;;;;;4982650;28;20515;-72
2022/07/16 02:30:42;;;;;;;4.47;2.15;;;;;;;;;;4984075;28;20062;-72
2022/07/16 02:33:10;;;;;;;3.40;2.30;;;;;;;;;;4982103;28;20035;-72
2022/07/16 02:35:36;;;;;;;2.40;2.20;;;;;;;;;;4981901;28;20507;-73
2022/07/16 02:38:02;;;;;;;5.00;2.40;;;;;;;;;;4981697;28;20069;-72
2022/07/16 02:40:28;;;;;;;3.58;2.03;;;;;;;;;;4983988;28;20038;-72
2022/07/16 02:42:55;;;;;;;3.90;2.03;;;;;;;;;;4983678;28;20038;-72
2022/07/16 02:45:20;;;;;;;3.75;2.38;;;;;;;;;;4982987;28;20117;-72
2022/07/16 02:47:46;;;;;;;6.50;2.25;;;;;;;;;;4983598;28;20509;-72
2022/07/16 02:50:11;;;;;;;5.22;2.40;;;;;;;;;;4982900;28;20038;-72
2022/07/16 02:52:37;;;;;;;2.42;2.17;;;;;;;;;;4966062;28;20042;-73
2022/07/16 02:55:05;;;;;;;7.55;2.42;;;;;;;;;;4982735;28;20034;-72
2022/07/16 02:57:31;;;;;;;4.22;2.42;;;;;;;;;;4983504;28;20037;-73
2022/07/16 02:59:57;;;;;;;2.63;2.17;;;;;;;;;;4983429;28;20401;-73
2022/07/16 03:02:22;;;;;;;5.95;2.50;;;;;;;;;;4966074;28;20129;-72
2022/07/16 03:04:48;;;;;;;3.95;2.20;;;;;;;;;;4981918;28;20041;-72
2022/07/16 03:07:14;;;;;;;3.80;2.15;;;;;;;;;;4981040;28;20253;-71
2022/07/16 03:09:39;;;;;;;5.93;2.42;;;;;;;;;;4983325;28;20124;-73
2022/07/16 03:12:05;;;;;;;4.68;2.78;;;;;;;;;;4981888;28;20122;-72
2022/07/16 03:14:30;;;;;;;5.85;2.45;;;;;;;;;;4983122;28;20493;-72
2022/07/16 03:16:56;;;;;;;5.22;2.60;;;;;;;;;;4982859;28;20096;-73
2022/07/16 03:19:21;;;;;;;5.25;2.75;;;;;;;;;;4981475;28;20034;-72
2022/07/16 03:21:46;;;;;;;4.13;2.53;;;;;;;;;;4983023;28;20478;-72
2022/07/16 03:24:12;;;;;;;6.63;2.70;;;;;;;;;;4985605;28;20042;-72
2022/07/16 03:26:37;;;;;;;10.15;2.30;;;;;;;;;;4981342;28;20042;-72
2022/07/16 03:29:03;;;;;;;2.72;2.53;;;;;;;;;;4982386;28;20038;-73
2022/07/16 03:31:28;;;;;;;4.38;2.50;;;;;;;;;;4982761;28;20046;-73
2022/07/16 03:33:54;;;;;;;3.15;2.30;;;;;;;;;;4981000;28;20551;-73
2022/07/16 03:36:19;;;;;;;8.13;3.13;;;;;;;;;;4982349;28;20095;-72
2022/07/16 03:39:04;;;;;;;3.42;2.47;;;;;;;;;;4980918;28;20034;-72
2022/07/16 03:41:33;;;;;;;5.78;2.55;;;;;;;;;;4982362;28;20650;-73
2022/07/16 03:43:59;;;;;;;6.38;2.33;;;;;;;;;;4961955;28;20487;-73
2022/07/16 03:46:25;;;;;;;6.20;2.40;;;;;;;;;;4981477;28;20038;-72
2022/07/16 03:48:50;;;;;;;3.47;2.40;;;;;;;;;;4982551;28;20533;-73
2022/07/16 03:51:16;;;;;;;5.97;2.85;;;;;;;;;;4980601;28;20065;-73
2022/07/16 03:53:42;;;;;;;3.90;2.90;;;;;;;;;;4982712;28;20682;-73
2022/07/16 03:56:08;;;;;;;4.43;3.30;;;;;;;;;;4982280;28;20407;-73
2022/07/16 03:58:34;;;;;;;4.78;3.15;;;;;;;;;;4982487;28;20084;-73
2022/07/16 04:00:59;;;;;;;7.38;2.45;;;;;;;;;;4981690;28;20582;-72
2022/07/16 04:03:24;;;;;;;7.88;3.20;;;;;;;;;;4982060;28;20390;-72
2022/07/16 04:05:50;;;;;;;4.50;2.97;;;;;;;;;;4982239;28;20045;-73
2022/07/16 04:08:17;;;;;;;3.22;2.78;;;;;;;;;;4980834;28;20514;-73
2022/07/16 04:10:42;;;;;;;7.00;3.45;;;;;;;;;;4980585;28;20043;-73
2022/07/16 04:13:07;;;;;;;5.30;2.90;;;;;;;;;;4981362;28;20038;-73
2022/07/16 04:15:33;;;;;;;9.13;3.50;;;;;;;;;;4981956;28;20037;-73
2022/07/16 04:17:58;;;;;;;6.25;2.95;;;;;;;;;;4980956;28;20034;-72
2022/07/16 04:20:24;;;;;;;7.07;3.40;;;;;;;;;;4981883;28;20117;-73
2022/07/16 04:22:49;;;;;;;4.88;2.92;;;;;;;;;;4981270;28;20443;-72
2022/07/16 04:25:15;;;;;;;3.60;3.13;;;;;;;;;;4981382;28;20372;-72
2022/07/16 04:27:41;;;;;;;6.25;3.05;;;;;;;;;;4980918;28;20530;-73
2022/07/16 04:30:08;;;;;;;4.25;3.10;;;;;;;;;;4980568;28;20718;-73
2022/07/16 04:32:38;;;;;;;7.15;3.38;;;;;;;;;;4981701;28;20038;-72
2022/07/16 04:35:05;;;;;;;4.72;2.95;;;;;;;;;;4980758;28;21207;-72
2022/07/16 04:37:31;;;;;;;9.95;4.00;;;;;;;;;;4980398;28;20380;-71
2022/07/16 04:39:56;;;;;;;3.65;2.72;;;;;;;;;;4981469;28;20121;-72
2022/07/16 04:42:22;;;;;;;5.78;3.10;;;;;;;;;;4981883;28;20121;-72
2022/07/16 04:44:47;;;;;;;7.25;3.33;;;;;;;;;;4980508;28;20407;-72
2022/07/16 04:47:12;;;;;;;4.05;3.20;;;;;;;;;;4980466;28;20042;-73
2022/07/16 04:49:38;;;;;;;7.43;2.97;;;;;;;;;;4980361;28;20077;-73
2022/07/16 04:52:04;;;;;;;8.05;3.03;;;;;;;;;;4981901;28;20112;-73
2022/07/16 04:54:29;;;;;;;5.65;3.08;;;;;;;;;;4981496;28;20092;-73
2022/07/16 04:56:55;;;;;;;8.02;3.08;;;;;;;;;;4984987;28;20061;-72
2022/07/16 04:59:20;;;;;;;5.85;2.92;;;;;;;;;;4987945;28;20073;-73
2022/07/16 05:01:46;;;;;;;5.28;3.30;;;;;;;;;;4988142;28;20985;-72
2022/07/16 05:04:11;;;;;;;3.30;2.97;;;;;;;;;;4988020;28;20034;-74
2022/07/16 05:06:37;;;;;;;4.35;2.80;;;;;;;;;;4986637;28;20069;-73
2022/07/16 05:09:02;;;;;;;7.18;2.75;;;;;;;;;;4987905;28;20390;-73
2022/07/16 05:11:28;;;;;;;3.70;2.20;;;;;;;;;;4987837;28;20053;-73
2022/07/16 05:13:55;;;;;;;3.28;2.35;;;;;;;;;;4987944;28;20069;-73
2022/07/16 05:16:20;;;;;;;10.00;2.42;;;;;;;;;;4986209;28;20040;-74
2022/07/16 05:18:46;;;;;;;7.38;2.13;;;;;;;;;;4987422;28;20042;-73
2022/07/16 05:21:12;;;;;;;6.78;2.10;;;;;;;;;;4987595;28;20065;-73
2022/07/16 05:23:37;;;;;;;2.58;2.10;;;;;;;;;;4987919;28;20037;-73
2022/07/16 05:26:03;;;;;;;3.58;2.28;;;;;;;;;;4987480;28;20488;-73
2022/07/16 05:28:28;;;;;;;6.28;1.90;;;;;;;;;;4987120;28;21165;-73
2022/07/16 05:30:53;;;;;;;2.45;2.15;;;;;;;;;;4986333;28;20034;-74
2022/07/16 05:33:19;;;;;;;5.00;2.20;;;;;;;;;;4987881;28;20669;-74
2022/07/16 05:35:44;;;;;;;4.28;2.00;;;;;;;;;;4987400;28;20088;-74
2022/07/16 05:38:10;;;;;;;4.45;1.98;;;;;;;;;;4986965;28;20034;-73
2022/07/16 05:40:36;;;;;;;3.10;1.85;;;;;;;;;;4986514;28;20113;-73
2022/07/16 05:43:02;;;;;;;2.85;1.70;;;;;;;;;;4987089;28;20384;-73
2022/07/16 05:45:28;;;;;;;2.72;1.88;;;;;;;;;;4987339;28;20030;-73
2022/07/16 05:47:53;;;;;;;3.10;1.90;;;;;;;;;;4985617;28;20121;-73
2022/07/16 05:50:19;;;;;;;3.33;1.85;;;;;;;;;;4964626;28;20486;-73
2022/07/16 05:52:44;;;;;;;4.72;1.70;;;;;;;;;;4987124;28;20030;-74
2022/07/16 05:55:10;;;;;;;2.45;1.67;;;;;;;;;;4986946;28;20757;-74
2022/07/16 05:57:35;;;;;;;2.10;1.55;;;;;;;;;;4986130;28;20771;-74
2022/07/16 06:00:02;;;;;;;5.55;1.73;;;;;;;;;;4986093;28;20030;-73
2022/07/16 06:02:39;;;;;;;3.45;1.77;;;;;;;;;;4984398;28;20145;-73
2022/07/16 06:05:05;;;;;;;3.05;1.70;;;;;;;;;;4986882;28;20392;-73
2022/07/16 06:07:30;;;;;;;4.50;1.83;;;;;;;;;;4985179;28;20104;-73
2022/07/16 06:09:56;;;;;;;5.63;1.73;;;;;;;;;;4985154;28;20137;-73
2022/07/16 06:12:21;;;;;;;2.58;1.70;;;;;;;;;;4983366;28;20038;-73
2022/07/16 06:14:47;;;;;;;5.78;1.80;;;;;;;;;;4981926;28;20033;-74
2022/07/16 06:17:13;;;;;;;6.00;1.40;;;;;;;;;;4982513;28;20042;-72
2022/07/16 06:19:43;;;;;;;2.92;1.42;;;;;;;;;;4983294;28;20061;-74
2022/07/16 06:22:10;;;;;;;5.18;1.83;;;;;;;;;;4976924;28;20050;-72
2022/07/16 06:24:36;;;;;;;3.08;1.60;;;;;;;;;;4980403;28;20034;-75
2022/07/16 06:27:01;;;;;;;4.43;1.70;;;;;;;;;;4981625;28;20071;-74
2022/07/16 06:29:27;;;;;;;2.25;1.50;;;;;;;;;;4979163;28;20113;-73
2022/07/16 06:31:52;;;;;;;2.67;1.63;;;;;;;;;;4964344;28;20487;-74
2022/07/16 06:34:17;;;;;;;3.55;2.38;;;;;;;;;;4980773;28;20042;-74
2022/07/16 06:36:43;;;;;;;4.10;1.65;;;;;;;;;;4982788;28;20376;-75
2022/07/16 06:39:08;;;;;;;4.68;1.60;;;;;;;;;;4983640;28;20034;-74
2022/07/16 06:41:38;;;;;;;2.10;1.45;;;;;;;;;;4985645;28;20030;-74
2022/07/16 06:44:05;;;;;;;5.05;1.70;;;;;;;;;;4983945;28;20569;-73
2022/07/16 06:46:30;;;;;;;2.40;1.50;;;;;;;;;;4982327;28;20042;-74
2022/07/16 06:48:56;;;;;;;4.32;1.67;;;;;;;;;;4983106;28;20037;-75
2022/07/16 06:51:21;;;;;;;2.88;1.85;;;;;;;;;;4982233;28;20065;-74
2022/07/16 06:53:47;;;;;;;3.17;1.70;;;;;;;;;;4983498;28;20034;-75
2022/07/16 06:56:13;;;;;;;2.08;1.55;;;;;;;;;;4982361;28;20042;-75
2022/07/16 06:58:38;;;;;;;2.63;1.60;;;;;;;;;;4983722;28;20045;-76
2022/07/16 07:01:04;;;;;;;3.20;1.88;;;;;;;;;;4978541;28;20034;-76
2022/07/16 07:03:29;;;;;;;2.22;1.40;;;;;;;;;;4974928;28;20083;-74
2022/07/16 07:05:55;;;;;;;4.93;1.60;;;;;;;;;;4976177;28;20029;-74
2022/07/16 07:08:20;;;;;;;2.92;1.65;;;;;;;;;;4975959;28;20104;-71
2022/07/16 07:10:46;;;;;;;1.63;1.48;;;;;;;;;;4977528;28;20039;-72
2022/07/16 07:13:11;;;;;;;1.75;1.50;;;;;;;;;;4975029;28;20065;-72
2022/07/16 07:15:37;;;;;;;2.38;1.40;;;;;;;;;;4976455;28;20034;-73
2022/07/16 07:18:02;;;;;;;1.65;1.45;;;;;;;;;;4974924;28;20046;-73
2022/07/16 07:20:28;;;;;;;3.35;1.60;;;;;;;;;;4974128;28;20046;-72
2022/07/16 07:22:53;;;;;;;1.77;1.40;;;;;;;;;;4976471;28;20034;-73
2022/07/16 07:25:19;;;;;;;2.60;1.70;;;;;;;;;;4976488;28;20038;-74
2022/07/16 07:27:44;;;;;;;4.57;1.90;;;;;;;;;;4976135;28;20042;-75
2022/07/16 07:30:11;;;;;;;3.25;1.60;;;;;;;;;;4971516;28;20153;-72
2022/07/16 07:32:37;;;;;;;4.18;1.30;;;;;;;;;;4974175;28;20037;-73
2022/07/16 07:35:02;;;;;;;3.00;1.67;;;;;;;;;;4974420;28;20034;-73
2022/07/16 07:37:28;;;;;;;5.75;1.70;;;;;;;;;;4974023;28;20143;-73
2022/07/16 07:39:53;;;;;;;3.00;1.30;;;;;;;;;;4974535;28;20034;-73
2022/07/16 07:42:19;;;;;;;1.48;1.38;;;;;;;;;;4973521;28;20838;-73
2022/07/16 07:44:44;;;;;;;1.55;1.33;;;;;;;;;;4974570;28;20030;-73
2022/07/16 07:47:10;;;;;;;6.95;1.50;;;;;;;;;;4974029;28;20037;-73
2022/07/16 07:49:35;;;;;;;1.48;1.38;;;;;;;;;;4973718;28;20084;-73
2022/07/16 07:52:01;;;;;;;5.78;1.60;;;;;;;;;;4973276;28;20084;-73
2022/07/16 07:54:27;;;;;;;2.90;1.50;;;;;;;;;;4973114;28;20052;-73
2022/07/16 07:56:52;;;;;;;2.67;1.65;;;;;;;;;;4973763;28;20439;-73
2022/07/16 07:59:17;;;;;;;4.72;1.63;;;;;;;;;;4974650;28;20046;-73
2022/07/16 08:01:43;;;;;;;4.93;1.63;;;;;;;;;;4982043;28;20034;-74
2022/07/16 08:04:09;;;;;;;2.15;1.45;;;;;;;;;;4981247;28;20049;-75
2022/07/16 08:06:36;;;;;;;3.33;1.33;;;;;;;;;;4980662;28;20034;-75
2022/07/16 08:09:02;;;;;;;4.45;1.83;;;;;;;;;;4981791;28;20049;-76
2022/07/16 08:11:27;;;;;;;3.95;1.50;;;;;;;;;;4982368;28;20381;-76
2022/07/16 08:13:52;;;;;;;1.83;1.60;;;;;;;;;;4979762;28;20077;-76
2022/07/16 08:16:18;;;;;;;4.38;1.83;;;;;;;;;;4982437;28;20172;-77
2022/07/16 08:18:44;;;;;;;1.83;1.63;;;;;;;;;;4984270;28;20045;-77
2022/07/16 08:21:09;;;;;;;6.15;1.60;;;;;;;;;;4982869;28;20034;-76
2022/07/16 08:26:19;;;;;;;6.00;1.58;;;;;;;;;;4981750;28;20038;-76
2022/07/16 08:28:44;;;;;;;4.15;1.65;;;;;;;;;;4977950;28;20043;-74
2022/07/16 08:31:10;;;;;;;6.65;1.75;;;;;;;;;;4978606;28;20096;-74
2022/07/16 08:33:35;;;;;;;7.43;1.63;;;;;;;;;;4979986;28;20042;-74
2022/07/16 08:36:01;;;;;;;6.90;1.50;;;;;;;;;;4980418;28;20650;-74
2022/07/16 08:38:27;;;;;;;2.85;1.75;;;;;;;;;;4981676;28;20041;-74
2022/07/16 08:40:55;;;;;;;3.83;2.00;;;;;;;;;;4981858;28;20057;-74
2022/07/16 08:43:21;;;;;;;3.13;1.63;;;;;;;;;;4981492;28;20038;-74
2022/07/16 08:45:47;;;;;;;2.22;1.60;;;;;;;;;;4980096;28;20137;-73
2022/07/16 08:48:13;;;;;;;2.08;1.70;;;;;;;;;;4980487;28;20251;-73
2022/07/16 08:50:41;;;;;;;4.97;1.80;;;;;;;;;;4979198;28;20038;-73
2022/07/16 08:53:08;;;;;;;3.65;1.75;;;;;;;;;;4971473;28;20038;-73
2022/07/16 08:55:36;;;;;;;3.95;1.90;;;;;;;;;;4980627;28;20042;-74
2022/07/16 08:58:05;;;;;;;4.07;1.73;;;;;;;;;;4979982;28;20042;-73
2022/07/16 09:00:31;;;;;;;4.15;2.45;;;;;;;;;;4980972;28;20042;-73
2022/07/16 09:02:57;;;;;;;7.53;1.77;;;;;;;;;;4980786;28;20038;-73
2022/07/16 09:05:24;;;;;;;2.15;1.50;;;;;;;;;;4980304;28;20718;-74
2022/07/16 09:07:50;;;;;;;5.28;2.00;;;;;;;;;;4975661;28;20100;-73
2022/07/16 09:10:16;;;;;;;2.95;2.10;;;;;;;;;;4977021;28;20039;-72
2022/07/16 09:12:44;;;;;;;3.95;2.10;;;;;;;;;;4978953;28;20036;-73
2022/07/16 09:15:22;;;;;;;4.72;1.88;;;;;;;;;;4979001;28;20049;-73
2022/07/16 09:18:10;;;;;;;3.35;1.80;;;;;;;;;;4977106;28;20396;-73
2022/07/16 09:20:48;;;;;;;5.20;2.10;;;;;;;;;;4978053;28;20033;-73
2022/07/16 09:23:30;;;;;;;3.35;1.77;;;;;;;;;;4977570;28;20454;-72
2022/07/16 09:25:57;;;;;;;5.60;1.80;;;;;;;;;;4980392;28;20038;-73
2022/07/16 09:28:24;;;;;;;3.97;2.15;;;;;;;;;;4974291;28;20108;-73
2022/07/16 09:30:50;;;;;;;4.80;1.80;;;;;;;;;;4969681;28;20058;-73
2022/07/16 09:33:21;;;;;;;2.58;2.03;;;;;;;;;;4977066;28;20076;-73
2022/07/16 09:35:49;;;;;;;3.15;1.95;;;;;;;;;;4976854;28;20030;-72
2022/07/16 09:38:15;;;;;;;7.47;2.28;;;;;;;;;;4976686;28;20050;-72
2022/07/16 09:40:46;;;;;;;3.83;1.80;;;;;;;;;;4979873;28;20050;-72
2022/07/16 09:43:15;;;;;;;3.60;1.77;;;;;;;;;;4983146;28;20038;-73
2022/07/16 09:45:46;;;;;;;3.20;2.10;;;;;;;;;;4984031;28;20483;-72
2022/07/16 09:48:22;;;;;;;;;;;;;;;;;;4983467;28;20510;-72
2022/07/16 09:50:48;;;;;;;4.70;1.80;;;;;;;;;;4983153;28;19922;-73
2022/07/16 09:53:15;;;;;;;3.03;1.70;;;;;;;;;;4965475;28;20048;-72
2022/07/16 09:55:57;;;;;;;6.05;2.10;;;;;;;;;;4983903;28;20037;-72
2022/07/16 09:58:23;;;;;;;4.20;1.98;;;;;;;;;;4984253;28;20045;-72
2022/07/16 10:00:49;;;;;;;2.33;1.90;;;;;;;;;;4984703;28;20026;-72
2022/07/16 10:03:14;;;;;;;8.52;2.72;;;;;;;;;;4982064;28;20034;-73
2022/07/16 10:05:41;;;;;;;4.50;2.33;;;;;;;;;;4985080;28;20940;-72
2022/07/16 10:08:06;;;;;;;6.97;2.65;;;;;;;;;;4984431;28;20076;-72
2022/07/16 10:10:31;;;;;;;2.92;1.98;;;;;;;;;;4984631;28;20415;-73
2022/07/16 10:12:57;;;;;;;3.13;2.15;;;;;;;;;;4984105;28;20371;-72
2022/07/16 10:15:23;;;;;;;4.07;1.75;;;;;;;;;;4981979;28;20126;-72
2022/07/16 10:17:48;;;;;;;4.65;1.60;;;;;;;;;;4982632;28;20050;-72
2022/07/16 10:20:18;;;;;;;4.78;1.85;;;;;;;;;;4984327;28;20038;-72
2022/07/16 10:22:46;;;;;;;3.63;2.00;;;;;;;;;;4984282;28;20039;-72
2022/07/16 10:25:22;;;;;;;3.95;2.15;;;;;;;;;;4982770;28;20033;-73
2022/07/16 10:27:48;;;;;;;4.10;2.10;;;;;;;;;;4984247;28;20065;-74
2022/07/16 10:30:22;;;;;;;2.90;2.20;;;;;;;;;;4983049;28;20575;-74
2022/07/16 10:33:00;;;;;;;4.97;2.17;;;;;;;;;;4984469;28;20088;-72
2022/07/16 10:35:31;;;;;;;8.45;1.98;;;;;;;;;;4983596;28;20045;-72
2022/07/16 10:38:10;;;;;;;2.08;1.88;;;;;;;;;;4983708;28;20088;-72
2022/07/16 10:40:37;;;;;;;5.00;1.98;;;;;;;;;;4985004;28;20036;-72
2022/07/16 10:43:09;;;;;;;2.72;1.70;;;;;;;;;;4983712;28;20046;-71
2022/07/16 10:45:56;;;;;;;3.75;1.70;;;;;;;;;;4985731;28;20062;-71
2022/07/16 10:48:28;;;;;;;3.58;1.73;;;;;;;;;;4974754;28;20051;-71
2022/07/16 10:51:12;;;;;;;3.65;1.95;;;;;;;;;;4985062;28;20042;-71
2022/07/16 10:53:56;;;;;;;2.53;1.52;;;;;;;;;;4984210;28;20030;-72
2022/07/16 10:56:38;;;;;;;4.43;1.85;;;;;;;;;;4984480;28;20042;-73
2022/07/16 10:59:08;;;;;;;3.90;1.60;;;;;;;;;;4982754;28;20119;-73
2022/07/16 11:01:35;;;;;;;4.55;1.80;;;;;;;;;;4982593;28;20046;-73
2022/07/16 11:04:02;;;;;;;2.13;1.80;;;;;;;;;;4983320;28;20030;-72
2022/07/16 11:06:28;;;;;;;4.28;1.95;;;;;;;;;;4983312;28;20120;-72
2022/07/16 11:08:59;;;;;;;3.25;1.80;;;;;;;;;;4983483;28;20069;-72
2022/07/16 11:11:51;;;;;;;5.45;2.35;;;;;;;;;;4982741;28;20038;-71
2022/07/16 11:14:17;;;;;;;5.82;1.70;;;;;;;;;;4978457;28;20047;-71
2022/07/16 11:16:51;;;;;;;3.38;1.70;;;;;;;;;;4981237;28;20034;-73
2022/07/16 11:19:17;;;;;;;2.03;1.67;;;;;;;;;;4982003;28;20073;-72
2022/07/16 11:21:57;;;;;;;2.78;1.52;;;;;;;;;;4981374;28;20598;-71
2022/07/16 11:24:24;;;;;;;2.42;1.70;;;;;;;;;;4982066;28;20042;-71
2022/07/16 11:26:51;;;;;;;2.83;1.83;;;;;;;;;;4982338;28;20104;-71
2022/07/16 11:29:18;;;;;;;4.35;1.73;;;;;;;;;;4982599;28;20049;-71
2022/07/16 11:31:43;;;;;;;5.72;1.90;;;;;;;;;;4982301;28;20034;-71
2022/07/16 11:34:11;;;;;;;3.20;1.80;;;;;;;;;;4981060;28;20544;-71
2022/07/16 11:36:42;;;;;;;3.25;1.95;;;;;;;;;;4982610;28;20041;-71
2022/07/16 11:39:19;;;;;;;12.65;1.92;;;;;;;;;;4982059;28;20542;-71
2022/07/16 11:41:47;;;;;;;3.58;1.60;;;;;;;;;;4981327;28;20503;-71
2022/07/16 11:44:18;;;;;;;3.28;1.98;;;;;;;;;;4981398;28;20121;-71
2022/07/16 11:47:01;;;;;;;1.90;1.67;;;;;;;;;;4981525;28;20217;-71
2022/07/16 11:49:27;;;;;;;5.43;1.90;;;;;;;;;;4982341;28;20034;-71
2022/07/16 11:51:57;;;;;;;2.30;1.80;;;;;;;;;;4980475;28;20034;-72
2022/07/16 11:54:24;;;;;;;3.25;2.00;;;;;;;;;;4979546;28;20045;-72
2022/07/16 11:56:50;;;;;;;2.78;1.80;;;;;;;;;;4961799;28;20043;-72
2022/07/16 11:59:26;;;;;;;3.88;1.60;;;;;;;;;;4979204;28;20093;-72
2022/07/16 12:02:13;;;;;;;5.05;1.70;;;;;;;;;;4980303;28;20038;-72
2022/07/16 12:04:42;;;;;;;4.32;1.95;;;;;;;;;;4978913;28;20027;-72
2022/07/16 12:07:11;;;;;;;4.82;1.67;;;;;;;;;;4979586;28;20061;-71
2022/07/16 12:09:42;;;;;;;1.88;1.67;;;;;;;;;;4980098;28;20044;-71
2022/07/16 12:12:19;;;;;;;1.80;1.70;;;;;;;;;;4974768;28;20104;-72
2022/07/16 12:14:49;;;;;;;3.33;1.98;;;;;;;;;;4972952;28;20034;-72
2022/07/16 12:17:28;;;;;;;2.60;1.52;;;;;;;;;;4974448;28;20092;-74
2022/07/16 12:20:21;;;;;;;1.80;1.63;;;;;;;;;;4975033;28;20476;-74
2022/07/16 12:22:57;;;;;;;1.98;1.73;;;;;;;;;;4974852;28;20038;-73
2022/07/16 12:25:32;;;;;;;8.15;1.70;;;;;;;;;;4974563;28;20045;-73
2022/07/16 12:28:03;;;;;;;2.47;1.50;;;;;;;;;;4973385;28;20677;-73
2022/07/16 12:30:56;;;;;;;5.50;1.95;;;;;;;;;;4973372;28;20041;-73
2022/07/16 12:33:27;;;;;;;3.85;1.88;;;;;;;;;;4964667;28;20562;-73
2022/07/16 12:36:04;;;;;;;3.15;1.77;;;;;;;;;;4974960;28;20045;-73
2022/07/16 12:38:50;;;;;;;2.15;1.60;;;;;;;;;;4973784;28;20077;-73
2022/07/16 12:41:32;;;;;;;2.85;1.65;;;;;;;;;;4972505;28;20048;-73
2022/07/16 12:44:00;;;;;;;3.08;1.70;;;;;;;;;;4972966;28;20042;-72
2022/07/16 12:46:53;;;;;;;4.63;1.40;;;;;;;;;;4973327;28;20049;-71
2022/07/16 12:49:22;;;;;;;4.97;2.10;;;;;;;;;;4971553;28;20034;-72
2022/07/16 12:51:49;;;;;;;2.67;1.50;;;;;;;;;;4973208;28;20054;-73
2022/07/16 12:54:16;;;;;;;6.55;1.75;;;;;;;;;;4973042;28;20068;-73
2022/07/16 12:59:28;;;;;;;2.25;1.63;;;;;;;;;;4971589;28;20048;-73
2022/07/16 13:01:55;;;;;;;2.58;1.50;;;;;;;;;;4973256;28;20895;-73
2022/07/16 13:04:21;;;;;;;2.17;1.50;;;;;;;;;;4971620;28;20112;-72
2022/07/16 13:06:48;;;;;;;4.43;2.00;;;;;;;;;;4973229;28;20037;-72
2022/07/16 13:09:15;;;;;;;4.70;1.80;;;;;;;;;;4973111;28;20038;-72
2022/07/16 13:11:42;;;;;;;2.75;1.73;;;;;;;;;;4972021;28;20034;-72
2022/07/16 13:14:09;;;;;;;2.88;1.73;;;;;;;;;;4972772;28;20058;-72
2022/07/16 13:16:35;;;;;;;2.67;1.60;;;;;;;;;;4973515;28;20614;-72
2022/07/16 13:19:01;;;;;;;2.08;1.73;;;;;;;;;;4976469;28;20866;-72
2022/07/16 13:21:28;;;;;;;4.97;1.70;;;;;;;;;;4975765;28;20122;-72
2022/07/16 13:23:55;;;;;;;2.25;1.60;;;;;;;;;;4977108;28;20037;-72
2022/07/16 13:26:22;;;;;;;1.85;1.50;;;;;;;;;;4976511;28;20097;-72
2022/07/16 13:28:47;;;;;;;6.68;1.70;;;;;;;;;;4977425;28;20038;-73
2022/07/16 13:31:13;;;;;;;2.72;1.80;;;;;;;;;;4977132;28;20614;-74
2022/07/16 13:33:39;;;;;;;11.63;1.80;;;;;;;;;;4976111;28;20053;-74
2022/07/16 13:36:09;;;;;;;3.67;1.80;;;;;;;;;;4982594;28;20038;-74
2022/07/16 13:38:37;;;;;;;4.70;1.92;;;;;;;;;;4982320;28;20038;-73
2022/07/16 13:41:04;;;;;;;3.03;1.65;;;;;;;;;;4983806;28;20044;-73
2022/07/16 13:43:30;;;;;;;6.60;1.70;;;;;;;;;;4980591;28;20039;-74
2022/07/16 13:45:55;;;;;;;3.03;1.60;;;;;;;;;;4980066;28;20042;-73
2022/07/16 13:48:21;;;;;;;2.30;1.70;;;;;;;;;;4983588;28;20077;-73
2022/07/16 13:50:46;;;;;;;5.97;1.52;;;;;;;;;;4984462;28;20041;-71
2022/07/16 13:53:12;;;;;;;2.05;1.63;;;;;;;;;;4984911;28;20045;-72
2022/07/16 13:55:38;;;;;;;6.70;1.67;;;;;;;;;;4983299;28;20963;-72
2022/07/16 13:58:13;;;;;;;4.70;1.63;;;;;;;;;;4984336;28;20057;-71
2022/07/16 14:00:43;;;;;;;6.30;1.70;;;;;;;;;;4982011;28;20034;-72
2022/07/16 14:03:09;;;;;;;11.40;1.90;;;;;;;;;;4981425;28;20049;-72
2022/07/16 14:05:35;;;;;;;3.92;1.55;;;;;;;;;;4981778;28;20929;-72
2022/07/16 14:08:00;;;;;;;1.63;1.52;;;;;;;;;;4981985;28;20045;-72
2022/07/16 14:10:26;;;;;;;5.53;1.70;;;;;;;;;;4980998;28;20031;-72
2022/07/16 14:12:51;;;;;;;2.17;1.50;;;;;;;;;;4982954;28;20038;-71
2022/07/16 14:15:17;;;;;;;1.73;1.48;;;;;;;;;;4982614;28;20179;-72
2022/07/16 14:17:43;;;;;;;7.57;1.85;;;;;;;;;;4983239;28;20062;-72
2022/07/16 14:20:11;;;;;;;4.05;1.63;;;;;;;;;;4983786;28;20062;-72
2022/07/16 14:22:38;;;;;;;5.32;1.60;;;;;;;;;;4983904;28;20038;-72
2022/07/16 14:25:03;;;;;;;5.40;1.38;;;;;;;;;;4982399;28;20038;-72
2022/07/16 14:27:29;;;;;;;5.55;1.52;;;;;;;;;;4982331;28;20049;-72
2022/07/16 14:29:54;;;;;;;4.53;1.60;;;;;;;;;;4982921;28;20037;-72
2022/07/16 14:32:20;;;;;;;6.05;1.75;;;;;;;;;;4983639;28;20396;-72
2022/07/16 14:34:47;;;;;;;1.90;1.63;;;;;;;;;;4984765;28;20041;-72
2022/07/16 14:37:13;;;;;;;6.55;1.80;;;;;;;;;;4983987;28;20045;-72
2022/07/16 14:39:38;;;;;;;5.28;1.55;;;;;;;;;;4982216;28;20026;-72
2022/07/16 14:42:04;;;;;;;1.60;1.50;;;;;;;;;;4982795;28;20057;-72
2022/07/16 14:44:30;;;;;;;3.17;1.50;;;;;;;;;;4983804;28;20125;-73
2022/07/16 14:46:56;;;;;;;3.22;1.40;;;;;;;;;;4984555;28;20114;-72
2022/07/16 14:49:21;;;;;;;4.07;2.03;;;;;;;;;;4983100;28;20038;-71
2022/07/16 14:51:47;;;;;;;3.40;1.50;;;;;;;;;;4983487;28;20095;-72